createdAt,value
2022-11-16T00:00:28.102Z,3.96
2022-11-16T00:02:59.388Z,3.93
2022-11-16T00:05:30.018Z,3.87
2022-11-16T00:08:01.421Z,3.75
2022-11-16T00:10:32.163Z,3.81
2022-11-16T00:13:03.024Z,3.75
2022-11-16T00:15:36.480Z,3.72
2022-11-16T00:18:07.603Z,3.69
2022-11-16T00:20:38.109Z,3.61
2022-11-16T00:23:08.849Z,3.57
2022-11-16T00:25:39.261Z,3.53
2022-11-16T00:28:09.899Z,3.53
2022-11-16T00:30:43.013Z,3.51
2022-11-16T00:33:17.817Z,3.50
2022-11-16T00:35:48.554Z,3.48
2022-11-16T00:38:19.129Z,3.46
2022-11-16T00:40:49.620Z,3.47
2022-11-16T00:43:20.406Z,3.48
2022-11-16T00:45:53.857Z,3.47
2022-11-16T00:48:24.426Z,3.47
2022-11-16T00:50:55.058Z,3.45
2022-11-16T00:53:26.457Z,3.46
2022-11-16T00:55:57.548Z,3.47
2022-11-16T00:58:28.275Z,3.28
2022-11-16T01:01:10.994Z,3.45
2022-11-16T01:03:42.085Z,3.45
2022-11-16T01:06:17.808Z,3.38
2022-11-16T01:08:48.338Z,3.39
2022-11-16T01:11:32.577Z,3.38
2022-11-16T01:14:05.672Z,3.18
2022-11-16T01:16:38.840Z,2.74
2022-11-16T01:19:09.547Z,2.18
2022-11-16T01:21:40.700Z,1.76
2022-11-16T01:24:11.289Z,1.39
2022-11-16T01:26:41.806Z,1.17
2022-11-16T01:29:12.427Z,1.07
2022-11-16T01:31:49.898Z,1.04
2022-11-16T01:34:20.452Z,1.03
2022-11-16T01:36:52.596Z,1.02
2022-11-16T01:39:23.288Z,1.05
2022-11-16T01:41:57.954Z,1.03
2022-11-16T01:45:09.985Z,1.03
2022-11-16T01:47:43.197Z,1.03
2022-11-16T01:50:19.799Z,0.98
2022-11-16T01:52:57.356Z,1.09
2022-11-16T01:55:31.704Z,1.22
2022-11-16T01:58:28.017Z,1.36
2022-11-16T02:01:10.043Z,1.47
2022-11-16T02:03:50.354Z,1.59
2022-11-16T02:06:35.831Z,1.70
2022-11-16T02:09:43.879Z,1.85
2022-11-16T02:12:39.482Z,1.88
2022-11-16T02:15:19.051Z,2.07
2022-11-16T02:18:05.001Z,2.16
2022-11-16T02:20:54.627Z,2.24
2022-11-16T02:23:59.408Z,2.30
2022-11-16T02:26:48.636Z,2.37
2022-11-16T02:29:33.049Z,2.41
2022-11-16T02:32:07.892Z,2.42
2022-11-16T02:34:41.524Z,2.45
2022-11-16T02:37:17.869Z,2.47
2022-11-16T02:39:51.487Z,2.49
2022-11-16T02:42:29.278Z,2.51
2022-11-16T02:45:04.270Z,2.51
2022-11-16T02:47:38.415Z,2.53
2022-11-16T02:50:14.345Z,2.55
2022-11-16T02:52:44.842Z,2.58
2022-11-16T02:55:15.833Z,2.61
2022-11-16T02:57:54.470Z,2.63
2022-11-16T03:00:31.176Z,2.63
2022-11-16T03:03:16.738Z,2.65
2022-11-16T03:05:53.376Z,2.68
2022-11-16T03:08:29.777Z,2.67
2022-11-16T03:11:18.780Z,2.68
2022-11-16T03:13:50.603Z,2.67
2022-11-16T03:16:28.344Z,2.67
2022-11-16T03:19:03.489Z,2.69
2022-11-16T03:21:40.248Z,2.69
2022-11-16T03:24:12.132Z,2.70
2022-11-16T03:26:50.119Z,2.71
2022-11-16T03:29:26.763Z,2.73
2022-11-16T03:32:11.854Z,2.74
2022-11-16T03:34:49.258Z,2.74
2022-11-16T03:37:20.078Z,2.77
2022-11-16T03:39:51.904Z,2.81
2022-11-16T03:42:25.230Z,2.85
2022-11-16T03:44:56.771Z,2.85
2022-11-16T03:47:31.609Z,2.93
2022-11-16T03:50:02.161Z,2.97
2022-11-16T03:52:34.346Z,3.00
2022-11-16T03:55:05.106Z,3.03
2022-11-16T03:57:37.369Z,3.07
2022-11-16T04:00:09.205Z,3.05
2022-11-16T04:02:48.859Z,3.12
2022-11-16T04:05:37.308Z,3.14
2022-11-16T04:08:20.911Z,3.17
2022-11-16T04:11:03.667Z,3.18
2022-11-16T04:13:49.562Z,3.19
2022-11-16T04:16:32.968Z,3.21
2022-11-16T04:19:18.762Z,3.23
2022-11-16T04:22:06.012Z,3.27
2022-11-16T04:24:41.633Z,3.30
2022-11-16T04:27:28.642Z,3.31
2022-11-16T04:30:02.189Z,3.35
2022-11-16T04:32:48.416Z,3.39
2022-11-16T04:35:43.997Z,3.38
2022-11-16T04:38:14.565Z,3.41
2022-11-16T04:40:45.078Z,3.43
2022-11-16T04:43:18.051Z,3.45
2022-11-16T04:46:01.603Z,3.46
2022-11-16T04:48:39.579Z,3.47
2022-11-16T04:51:13.218Z,3.49
2022-11-16T04:53:43.993Z,3.50
2022-11-16T04:56:22.076Z,3.52
2022-11-16T04:58:52.675Z,3.52
2022-11-16T05:01:43.776Z,3.54
2022-11-16T05:04:14.728Z,3.21
2022-11-16T05:06:49.902Z,2.70
2022-11-16T05:09:20.781Z,2.09
2022-11-16T05:11:51.338Z,1.68
2022-11-16T05:14:21.901Z,1.33
2022-11-16T05:16:53.005Z,1.10
2022-11-16T05:19:35.758Z,0.98
2022-11-16T05:22:09.271Z,0.93
2022-11-16T05:24:39.753Z,0.92
2022-11-16T05:27:12.557Z,0.93
2022-11-16T05:29:46.119Z,0.96
2022-11-16T05:32:21.203Z,1.13
2022-11-16T05:34:52.829Z,1.34
2022-11-16T05:37:27.019Z,1.53
2022-11-16T05:39:57.927Z,1.70
2022-11-16T05:42:38.640Z,1.88
2022-11-16T05:45:10.295Z,2.06
2022-11-16T05:47:40.801Z,2.22
2022-11-16T05:50:12.686Z,2.38
2022-11-16T05:52:47.766Z,2.54
2022-11-16T05:55:19.621Z,2.67
2022-11-16T05:57:50.519Z,2.83
2022-11-16T06:00:21.908Z,2.96
2022-11-16T06:02:55.629Z,3.08
2022-11-16T06:05:35.114Z,3.18
2022-11-16T06:08:11.380Z,3.29
2022-11-16T06:10:42.105Z,3.39
2022-11-16T06:13:12.668Z,3.48
2022-11-16T06:18:28.950Z,3.58
2022-11-16T06:20:59.483Z,3.63
2022-11-16T06:23:32.815Z,3.70
2022-11-16T06:26:03.610Z,3.77
2022-11-16T06:28:35.758Z,3.84
2022-11-16T06:31:08.103Z,3.90
2022-11-16T06:33:43.591Z,3.95
2022-11-16T06:36:27.646Z,4.01
2022-11-16T06:39:02.919Z,4.12
2022-11-16T06:41:41.241Z,4.19
2022-11-16T06:44:13.852Z,4.34
2022-11-16T06:46:54.343Z,4.52
2022-11-16T06:49:24.852Z,4.74
2022-11-16T06:51:57.397Z,5.00
2022-11-16T06:54:31.652Z,5.27
2022-11-16T06:57:02.191Z,5.54
2022-11-16T06:59:32.844Z,5.81
2022-11-16T07:02:03.466Z,6.09
2022-11-16T07:04:36.437Z,6.36
2022-11-16T07:07:08.327Z,6.61
2022-11-16T07:09:44.743Z,6.86
2022-11-16T07:12:16.089Z,7.09
2022-11-16T07:14:48.382Z,7.30
2022-11-16T07:17:18.925Z,7.51
2022-11-16T07:19:49.549Z,7.66
2022-11-16T07:22:20.475Z,7.82
2022-11-16T07:24:55.675Z,7.98
2022-11-16T07:27:27.067Z,8.15
2022-11-16T07:29:57.598Z,8.30
2022-11-16T07:32:48.437Z,8.46
2022-11-16T07:35:26.231Z,8.60
2022-11-16T07:37:56.867Z,8.71
2022-11-16T07:40:30.162Z,8.83
2022-11-16T07:43:01.488Z,8.97
2022-11-16T07:45:41.243Z,9.10
2022-11-16T07:48:13.976Z,9.25
2022-11-16T07:51:12.810Z,9.44
2022-11-16T07:53:50.131Z,9.59
2022-11-16T07:56:23.447Z,9.74
2022-11-16T07:58:54.126Z,9.88
2022-11-16T08:01:25.126Z,9.99
2022-11-16T08:03:57.044Z,10.13
2022-11-16T08:06:30.091Z,10.23
2022-11-16T08:09:01.215Z,10.31
2022-11-16T08:11:35.651Z,10.40
2022-11-16T08:14:06.179Z,10.47
2022-11-16T08:16:36.838Z,10.54
2022-11-16T08:19:15.894Z,10.61
2022-11-16T08:21:46.375Z,10.67
2022-11-16T08:24:19.240Z,10.73
2022-11-16T08:26:54.436Z,10.80
2022-11-16T08:29:24.962Z,10.87
2022-11-16T08:31:56.713Z,10.95
2022-11-16T08:34:27.411Z,11.02
2022-11-16T08:37:02.521Z,11.10
2022-11-16T08:39:41.683Z,11.17
2022-11-16T08:42:15.746Z,11.22
2022-11-16T08:44:50.219Z,11.28
2022-11-16T08:47:23.411Z,11.33
2022-11-16T08:49:56.910Z,11.40
2022-11-16T08:52:29.652Z,11.47
2022-11-16T08:55:01.630Z,11.55
2022-11-16T08:57:36.851Z,11.62
2022-11-16T09:00:14.231Z,11.71
2022-11-16T09:02:44.781Z,11.76
2022-11-16T09:05:15.476Z,11.74
2022-11-16T09:07:46.338Z,11.87
2022-11-16T09:10:19.211Z,11.94
2022-11-16T09:15:37.206Z,12.07
2022-11-16T09:18:07.741Z,12.13
2022-11-16T09:20:38.270Z,12.20
2022-11-16T09:23:08.759Z,12.28
2022-11-16T09:25:39.303Z,12.36
2022-11-16T09:28:12.519Z,12.41
2022-11-16T09:30:43.183Z,12.48
2022-11-16T09:33:14.078Z,12.54
2022-11-16T09:35:44.630Z,12.60
2022-11-16T09:38:22.115Z,12.65
2022-11-16T09:43:56.653Z,12.73
2022-11-16T09:46:32.527Z,12.76
2022-11-16T09:49:16.897Z,12.82
2022-11-16T09:51:53.998Z,12.87
2022-11-16T09:54:28.630Z,12.93
2022-11-16T09:57:07.941Z,13.00
2022-11-16T09:59:48.071Z,13.05
2022-11-16T10:02:24.238Z,13.08
2022-11-16T10:05:00.938Z,13.13
2022-11-16T10:07:41.774Z,13.19
2022-11-16T10:10:16.722Z,13.25
2022-11-16T10:12:52.317Z,13.35
2022-11-16T10:15:44.636Z,13.43
2022-11-16T10:18:25.366Z,13.52
2022-11-16T10:21:17.316Z,13.60
2022-11-16T10:24:03.409Z,13.72
2022-11-16T10:26:42.998Z,13.80
2022-11-16T10:29:40.114Z,13.89
2022-11-16T10:32:28.337Z,13.99
2022-11-16T10:35:03.450Z,14.10
2022-11-16T10:37:37.924Z,14.22
2022-11-16T10:40:21.316Z,14.36
2022-11-16T10:43:01.994Z,14.48
2022-11-16T10:45:41.735Z,14.62
2022-11-16T10:48:26.581Z,14.75
2022-11-16T10:50:57.625Z,14.87
2022-11-16T10:53:35.733Z,14.99
2022-11-16T10:56:17.995Z,15.10
2022-11-16T10:58:56.980Z,15.22
2022-11-16T11:01:36.937Z,15.32
2022-11-16T11:04:22.240Z,15.43
2022-11-16T11:06:55.085Z,15.52
2022-11-16T11:09:34.417Z,15.60
2022-11-16T11:12:32.211Z,15.67
2022-11-16T11:15:05.955Z,15.74
2022-11-16T11:17:38.674Z,15.78
2022-11-16T11:20:24.513Z,15.83
2022-11-16T11:22:58.915Z,15.90
2022-11-16T11:25:33.433Z,15.99
2022-11-16T11:28:09.873Z,16.08
2022-11-16T11:30:42.167Z,16.18
2022-11-16T11:33:15.345Z,16.28
2022-11-16T11:35:48.762Z,16.38
2022-11-16T11:38:19.267Z,16.46
2022-11-16T11:41:00.729Z,16.55
2022-11-16T11:43:33.852Z,16.60
2022-11-16T11:46:14.689Z,16.69
2022-11-16T11:48:52.743Z,16.74
2022-11-16T11:51:30.526Z,16.83
2022-11-16T11:54:02.703Z,16.91
2022-11-16T11:56:35.434Z,16.96
2022-11-16T11:59:07.725Z,17.01
2022-11-16T12:01:58.121Z,17.07
2022-11-16T12:05:04.058Z,17.08
2022-11-16T12:07:51.845Z,17.09
2022-11-16T12:10:29.763Z,17.11
2022-11-16T12:13:15.964Z,17.11
2022-11-16T12:16:00.897Z,17.06
2022-11-16T12:18:46.455Z,17.02
2022-11-16T12:21:18.170Z,16.96
2022-11-16T12:24:03.582Z,16.94
2022-11-16T12:26:46.262Z,16.92
2022-11-16T12:29:27.758Z,16.88
2022-11-16T12:32:16.696Z,16.82
2022-11-16T12:35:03.601Z,16.73
2022-11-16T12:37:40.876Z,16.62
2022-11-16T12:40:37.190Z,16.50
2022-11-16T12:43:20.123Z,16.40
2022-11-16T12:46:10.456Z,16.29
2022-11-16T12:49:10.825Z,16.19
2022-11-16T12:51:57.345Z,16.12
2022-11-16T12:55:24.066Z,16.02
2022-11-16T12:57:56.247Z,15.94
2022-11-16T13:00:26.774Z,15.87
2022-11-16T13:03:15.291Z,15.82
2022-11-16T13:06:03.385Z,15.77
2022-11-16T13:08:45.053Z,15.72
2022-11-16T13:11:21.818Z,15.67
2022-11-16T13:14:00.049Z,15.62
2022-11-16T13:16:32.145Z,15.58
2022-11-16T13:19:03.875Z,15.53
2022-11-16T13:21:51.697Z,15.48
2022-11-16T13:24:41.773Z,15.39
2022-11-16T13:27:30.045Z,15.39
2022-11-16T13:30:09.658Z,15.34
2022-11-16T13:33:02.615Z,15.29
2022-11-16T13:35:33.487Z,15.24
2022-11-16T13:38:03.930Z,15.19
2022-11-16T13:40:35.786Z,15.15
2022-11-16T13:43:22.818Z,15.12
2022-11-16T13:46:04.084Z,15.08
2022-11-16T13:48:38.733Z,15.02
2022-11-16T13:51:11.944Z,14.97
2022-11-16T13:54:43.162Z,14.92
2022-11-16T13:56:51.122Z,14.82
2022-11-16T13:59:29.244Z,14.76
2022-11-16T14:02:04.760Z,14.70
2022-11-16T14:04:43.982Z,14.62
2022-11-16T14:07:48.154Z,14.51
2022-11-16T14:10:48.307Z,14.44
2022-11-16T14:13:40.422Z,14.34
2022-11-16T14:16:47.608Z,14.25
2022-11-16T14:19:52.180Z,14.17
2022-11-16T14:22:39.922Z,14.08
2022-11-16T14:25:23.962Z,13.99
2022-11-16T14:28:02.998Z,13.93
2022-11-16T14:30:39.089Z,13.83
2022-11-16T14:33:17.152Z,13.75
2022-11-16T14:35:55.582Z,13.65
2022-11-16T14:38:34.143Z,13.56
2022-11-16T14:41:07.584Z,13.47
2022-11-16T14:43:46.672Z,13.39
2022-11-16T14:46:26.296Z,13.29
2022-11-16T14:48:59.134Z,13.20
2022-11-16T14:51:33.166Z,13.12
2022-11-16T14:54:14.549Z,13.07
2022-11-16T14:56:59.827Z,13.00
2022-11-16T14:59:31.378Z,12.91
2022-11-16T15:02:07.941Z,12.88
2022-11-16T15:04:38.450Z,12.80
2022-11-16T15:07:10.413Z,12.74
2022-11-16T15:09:47.347Z,12.60
2022-11-16T15:12:33.550Z,12.62
2022-11-16T15:15:09.201Z,12.56
2022-11-16T15:17:41.218Z,12.51
2022-11-16T15:20:20.129Z,12.46
2022-11-16T15:22:55.081Z,12.40
2022-11-16T15:25:34.266Z,12.34
2022-11-16T15:28:07.605Z,12.28
2022-11-16T15:30:40.527Z,12.19
2022-11-16T15:33:13.661Z,12.20
2022-11-16T15:35:44.311Z,12.12
2022-11-16T15:38:19.713Z,12.07
2022-11-16T15:40:53.551Z,12.06
2022-11-16T15:43:27.146Z,12.00
2022-11-16T15:45:58.909Z,11.95
2022-11-16T15:48:31.041Z,11.88
2022-11-16T15:51:10.256Z,11.85
2022-11-16T15:53:42.575Z,11.83
2022-11-16T15:56:18.783Z,11.81
2022-11-16T15:58:51.078Z,11.79
2022-11-16T16:01:23.120Z,11.78
2022-11-16T16:03:58.516Z,11.77
2022-11-16T16:06:48.681Z,11.74
2022-11-16T16:09:27.324Z,11.73
2022-11-16T16:12:19.048Z,11.71
2022-11-16T16:14:50.679Z,11.68
2022-11-16T16:17:26.773Z,11.63
2022-11-16T16:19:59.460Z,11.61
2022-11-16T16:22:33.636Z,11.56
2022-11-16T16:25:04.495Z,11.49
2022-11-16T16:27:42.639Z,11.44
2022-11-16T16:30:17.243Z,11.40
2022-11-16T16:32:51.852Z,11.31
2022-11-16T16:35:24.578Z,11.25
2022-11-16T16:38:01.068Z,11.18
2022-11-16T16:40:32.265Z,11.12
2022-11-16T16:43:05.347Z,11.08
2022-11-16T16:45:41.604Z,11.02
2022-11-16T16:48:13.097Z,10.97
2022-11-16T16:50:44.116Z,10.92
2022-11-16T16:53:16.040Z,10.86
2022-11-16T16:55:47.699Z,10.82
2022-11-16T16:58:21.027Z,10.76
2022-11-16T17:00:53.725Z,10.68
2022-11-16T17:03:28.525Z,10.63
2022-11-16T17:06:03.117Z,10.57
2022-11-16T17:08:36.957Z,10.51
2022-11-16T17:11:09.658Z,10.48
2022-11-16T17:13:45.211Z,10.43
2022-11-16T17:16:17.035Z,10.40
2022-11-16T17:18:48.106Z,10.02
2022-11-16T17:21:18.695Z,9.33
2022-11-16T17:23:49.283Z,8.48
2022-11-16T17:26:20.761Z,7.77
2022-11-16T17:28:58.241Z,7.15
2022-11-16T17:31:29.431Z,6.75
2022-11-16T17:34:00.495Z,6.51
2022-11-16T17:36:31.177Z,6.35
2022-11-16T17:39:01.736Z,6.24
2022-11-16T17:41:32.997Z,6.17
2022-11-16T17:44:08.360Z,6.09
2022-11-16T17:46:39.398Z,6.09
2022-11-16T17:49:09.977Z,6.10
2022-11-16T17:51:40.834Z,6.13
2022-11-16T17:54:11.476Z,6.12
2022-11-16T17:56:42.197Z,5.99
2022-11-16T17:59:15.781Z,5.80
2022-11-16T18:01:46.456Z,5.61
2022-11-16T18:04:17.108Z,5.47
2022-11-16T18:06:47.635Z,5.39
2022-11-16T18:09:18.985Z,5.32
2022-11-16T18:11:49.626Z,5.19
2022-11-16T18:14:23.161Z,5.26
2022-11-16T18:16:53.853Z,5.22
2022-11-16T18:19:24.415Z,5.26
2022-11-16T18:21:54.952Z,5.31
2022-11-16T18:24:25.910Z,5.31
2022-11-16T18:26:56.843Z,5.29
2022-11-16T18:29:30.410Z,5.25
2022-11-16T18:32:01.769Z,5.23
2022-11-16T18:34:32.483Z,5.21
2022-11-16T18:37:03.402Z,5.23
2022-11-16T18:39:34.252Z,5.23
2022-11-16T18:42:05.128Z,5.22
2022-11-16T18:44:38.299Z,5.20
2022-11-16T18:47:08.903Z,5.22
2022-11-16T18:49:39.504Z,5.13
2022-11-16T18:52:10.047Z,5.36
2022-11-16T18:54:40.637Z,5.53
2022-11-16T18:57:12.006Z,5.75
2022-11-16T18:59:45.093Z,5.96
2022-11-16T19:02:15.648Z,6.20
2022-11-16T19:04:46.383Z,6.41
2022-11-16T19:07:17.324Z,6.60
2022-11-16T19:09:47.818Z,6.82
2022-11-16T19:12:18.356Z,6.99
2022-11-16T19:14:51.512Z,7.16
2022-11-16T19:17:24.874Z,7.14
2022-11-16T19:19:55.504Z,7.32
2022-11-16T19:22:26.081Z,7.30
2022-11-16T19:24:59.488Z,7.32
2022-11-16T19:27:34.507Z,7.37
2022-11-16T19:30:08.486Z,7.43
2022-11-16T19:32:39.050Z,7.52
2022-11-16T19:35:11.112Z,7.61
2022-11-16T19:37:41.932Z,7.70
2022-11-16T19:40:13.406Z,7.78
2022-11-16T19:42:43.915Z,7.85
2022-11-16T19:45:17.367Z,7.91
2022-11-16T19:47:48.198Z,7.97
2022-11-16T19:50:19.720Z,8.03
2022-11-16T19:52:50.279Z,8.07
2022-11-16T19:55:20.761Z,8.13
2022-11-16T19:57:51.312Z,8.17
2022-11-16T20:00:24.575Z,8.19
2022-11-16T20:02:59.258Z,8.22
2022-11-16T20:05:30.467Z,8.23
2022-11-16T20:08:01.067Z,8.24
2022-11-16T20:10:32.548Z,8.25
2022-11-16T20:13:03.125Z,8.25
2022-11-16T20:15:36.261Z,8.22
2022-11-16T20:18:06.950Z,8.25
2022-11-16T20:20:37.772Z,8.23
2022-11-16T20:23:08.345Z,8.19
2022-11-16T20:25:43.845Z,8.16
2022-11-16T20:28:14.407Z,8.14
2022-11-16T20:30:51.475Z,8.10
2022-11-16T20:33:22.089Z,8.10
2022-11-16T20:35:52.784Z,8.09
2022-11-16T20:38:23.359Z,8.09
2022-11-16T20:40:53.811Z,8.09
2022-11-16T20:43:24.408Z,8.09
2022-11-16T20:46:00.211Z,8.10
2022-11-16T20:48:30.879Z,8.11
2022-11-16T20:51:01.461Z,8.11
2022-11-16T20:53:32.246Z,8.14
2022-11-16T20:56:04.108Z,8.16
2022-11-16T20:58:35.509Z,8.16
2022-11-16T21:01:11.125Z,8.17
2022-11-16T21:03:42.696Z,8.17
2022-11-16T21:06:14.014Z,8.17
2022-11-16T21:08:45.294Z,8.16
2022-11-16T21:11:17.526Z,8.16
2022-11-16T21:14:01.164Z,8.16
2022-11-16T21:16:34.922Z,8.15
2022-11-16T21:19:06.446Z,8.15
2022-11-16T21:21:38.214Z,8.15
2022-11-16T21:24:09.513Z,8.15
2022-11-16T21:26:41.071Z,8.14
2022-11-16T21:29:11.554Z,8.13
2022-11-16T21:31:44.642Z,8.14
2022-11-16T21:34:15.070Z,8.13
2022-11-16T21:36:45.555Z,8.15
2022-11-16T21:39:16.079Z,8.15
2022-11-16T21:41:46.514Z,8.17
2022-11-16T21:44:17.118Z,8.17
2022-11-16T21:46:50.228Z,8.19
2022-11-16T21:49:20.863Z,8.21
2022-11-16T21:51:51.360Z,8.23
2022-11-16T21:54:42.040Z,8.02
2022-11-16T21:57:12.604Z,7.48
2022-11-16T21:59:43.151Z,6.84
2022-11-16T22:02:16.210Z,6.29
2022-11-16T22:04:59.003Z,5.96
2022-11-16T22:07:39.668Z,5.78
2022-11-16T22:10:13.112Z,5.68
2022-11-16T22:12:43.569Z,5.69
2022-11-16T22:15:14.895Z,5.76
2022-11-16T22:17:48.663Z,5.86
2022-11-16T22:20:20.053Z,5.93
2022-11-16T22:22:50.629Z,5.91
2022-11-16T22:25:21.202Z,5.82
2022-11-16T22:28:19.323Z,5.72
2022-11-16T22:30:44.217Z,5.64
2022-11-16T22:33:20.189Z,5.70
2022-11-16T22:35:50.793Z,5.76
2022-11-16T22:38:21.242Z,5.81
2022-11-16T22:40:53.622Z,5.81
2022-11-16T22:43:26.533Z,5.74
2022-11-16T22:46:00.855Z,5.65
2022-11-16T22:48:38.640Z,5.62
2022-11-16T22:51:10.646Z,5.67
2022-11-16T22:53:41.435Z,5.78
2022-11-16T22:56:13.652Z,5.87
2022-11-16T22:58:44.542Z,5.96
2022-11-16T23:01:15.111Z,6.03
2022-11-16T23:03:49.032Z,6.06
2022-11-16T23:06:19.813Z,6.05
2022-11-16T23:08:50.798Z,5.97
2022-11-16T23:11:36.196Z,5.93
2022-11-16T23:14:20.521Z,5.89
2022-11-16T23:16:51.414Z,5.91
2022-11-16T23:19:38.129Z,6.00
2022-11-16T23:22:21.580Z,6.09
2022-11-16T23:25:04.291Z,6.17
2022-11-16T23:27:43.736Z,6.23
2022-11-16T23:30:15.056Z,6.28
2022-11-16T23:32:45.592Z,6.34
2022-11-16T23:35:18.889Z,6.46
2022-11-16T23:37:57.372Z,6.52
2022-11-16T23:40:30.667Z,6.53
2022-11-16T23:43:13.651Z,6.51
2022-11-16T23:45:45.183Z,6.46
2022-11-16T23:48:17.384Z,6.37
2022-11-16T23:50:50.461Z,6.38
2022-11-16T23:53:20.963Z,6.45
2022-11-16T23:55:51.416Z,6.52
2022-11-16T23:58:21.946Z,6.57
